CES6550 ZSCN-ZSJN
Flight info
| Callsign | CES6550 |
|---|---|
| Flight time | 1h 25m |
| Altitude | 30100 |
| Route | LAPEN W105 XSH W50 HFE W127 SEGPI V166 ELDIV V167 DO W126 DPX A593 ABTUB |
| Aircraft | A321/M-SDE3FGHIRWY/LB1 |
Departure
| Time | 2026-04-21 14:42 |
|---|---|
| Airport | Nanchang Changbei International Airport (ZSCN) |
Arrival
| Time | 2026-04-21 16:07 |
|---|---|
| Airport | Jinan Yaoqiang International Airport (ZSJN) |
| Time | Latitude | Longitude | Altitude | Speed | Heading |
|---|---|---|---|---|---|
| 2026-04-21 14:25 | 28.86564 | 115.90951 | 140 ft | 0 kts | 87° |
| 2026-04-21 14:34 | 28.86563 | 115.90927 | 140 ft | 4 kts | 96° |
| 2026-04-21 14:34 | 28.86569 | 115.90897 | 140 ft | 4 kts | 116° |
| 2026-04-21 14:34 | 28.86584 | 115.90874 | 140 ft | 4 kts | 155° |
| 2026-04-21 14:34 | 28.86595 | 115.90870 | 140 ft | 0 kts | 176° |
| 2026-04-21 14:36 | 28.86551 | 115.90873 | 140 ft | 18 kts | 176° |
| 2026-04-21 14:37 | 28.86363 | 115.90884 | 140 ft | 19 kts | 179° |
| 2026-04-21 14:37 | 28.86314 | 115.90824 | 140 ft | 10 kts | 238° |
| 2026-04-21 14:37 | 28.86298 | 115.90758 | 140 ft | 8 kts | 286° |
| 2026-04-21 14:37 | 28.86321 | 115.90697 | 140 ft | 11 kts | 293° |
| 2026-04-21 14:38 | 28.86372 | 115.90565 | 141 ft | 26 kts | 294° |
| 2026-04-21 14:38 | 28.86392 | 115.90434 | 142 ft | 12 kts | 226° |
| 2026-04-21 14:38 | 28.86298 | 115.90387 | 141 ft | 22 kts | 202° |
| 2026-04-21 14:38 | 28.86105 | 115.90291 | 141 ft | 33 kts | 203° |
| 2026-04-21 14:39 | 28.85894 | 115.90189 | 141 ft | 32 kts | 203° |
| 2026-04-21 14:39 | 28.85695 | 115.90092 | 142 ft | 27 kts | 203° |
| 2026-04-21 14:39 | 28.85523 | 115.90009 | 142 ft | 26 kts | 203° |
| 2026-04-21 14:39 | 28.85359 | 115.89929 | 142 ft | 25 kts | 203° |
| 2026-04-21 14:40 | 28.85201 | 115.89854 | 142 ft | 24 kts | 202° |
| 2026-04-21 14:40 | 28.85055 | 115.89782 | 142 ft | 14 kts | 210° |
| 2026-04-21 14:40 | 28.85034 | 115.89710 | 143 ft | 9 kts | 292° |
| 2026-04-21 14:40 | 28.85056 | 115.89654 | 144 ft | 6 kts | 296° |
| 2026-04-21 14:41 | 28.85095 | 115.89609 | 145 ft | 15 kts | 340° |
| 2026-04-21 14:41 | 28.85273 | 115.89678 | 146 ft | 50 kts | 23° |
| 2026-04-21 14:41 | 28.85802 | 115.89931 | 146 ft | 112 kts | 22° |
| 2026-04-21 14:41 | 28.86672 | 115.90352 | 149 ft | 157 kts | 23° |
| 2026-04-21 14:42 | 28.87743 | 115.90858 | 408 ft | 173 kts | 22° |
| 2026-04-21 14:42 | 28.88873 | 115.91396 | 910 ft | 176 kts | 22° |
| 2026-04-21 14:42 | 28.90003 | 115.91948 | 1445 ft | 180 kts | 21° |
| 2026-04-21 14:42 | 28.91224 | 115.92544 | 1669 ft | 202 kts | 21° |
| 2026-04-21 14:43 | 28.92583 | 115.93207 | 1817 ft | 224 kts | 21° |
| 2026-04-21 14:43 | 28.94102 | 115.93949 | 2027 ft | 250 kts | 22° |
| 2026-04-21 14:43 | 28.95744 | 115.94752 | 2624 ft | 262 kts | 21° |
| 2026-04-21 14:43 | 28.97446 | 115.95588 | 3272 ft | 272 kts | 22° |
| 2026-04-21 14:44 | 28.99195 | 115.96442 | 3904 ft | 281 kts | 21° |
| 2026-04-21 14:44 | 29.01016 | 115.97327 | 4577 ft | 289 kts | 20° |
| 2026-04-21 14:44 | 29.02888 | 115.98239 | 5278 ft | 295 kts | 20° |
| 2026-04-21 14:44 | 29.04795 | 115.99170 | 5993 ft | 300 kts | 19° |
| 2026-04-21 14:45 | 29.06734 | 116.00118 | 6696 ft | 305 kts | 19° |
| 2026-04-21 14:45 | 29.08697 | 116.01079 | 7410 ft | 309 kts | 19° |
| 2026-04-21 14:45 | 29.10682 | 116.02047 | 8126 ft | 312 kts | 18° |
| 2026-04-21 14:45 | 29.12687 | 116.03026 | 8824 ft | 315 kts | 18° |
| 2026-04-21 14:46 | 29.14719 | 116.04018 | 9499 ft | 319 kts | 18° |
| 2026-04-21 14:46 | 29.16755 | 116.04949 | 10118 ft | 318 kts | 9° |
| 2026-04-21 14:46 | 29.18934 | 116.05194 | 10489 ft | 318 kts | 346° |
| 2026-04-21 14:46 | 29.21048 | 116.04439 | 10624 ft | 323 kts | 323° |
| 2026-04-21 14:47 | 29.22762 | 116.02771 | 10739 ft | 328 kts | 302° |
| 2026-04-21 14:47 | 29.23852 | 116.00463 | 10990 ft | 334 kts | 288° |
| 2026-04-21 14:47 | 29.24768 | 115.97995 | 11501 ft | 339 kts | 288° |
| 2026-04-21 14:47 | 29.25698 | 115.95502 | 12090 ft | 342 kts | 289° |
| 2026-04-21 14:48 | 29.26641 | 115.92982 | 12678 ft | 346 kts | 289° |
| 2026-04-21 14:48 | 29.27595 | 115.90439 | 13259 ft | 350 kts | 289° |
| 2026-04-21 14:48 | 29.28550 | 115.87899 | 13818 ft | 353 kts | 289° |
| 2026-04-21 14:48 | 29.29526 | 115.85302 | 14326 ft | 356 kts | 289° |
| 2026-04-21 14:49 | 29.30509 | 115.82684 | 14838 ft | 359 kts | 289° |
| 2026-04-21 14:49 | 29.31501 | 115.80045 | 15355 ft | 362 kts | 290° |
| 2026-04-21 14:49 | 29.32770 | 115.77520 | 15842 ft | 371 kts | 302° |
| 2026-04-21 14:49 | 29.34562 | 115.75345 | 16326 ft | 381 kts | 315° |
| 2026-04-21 14:50 | 29.36008 | 115.74173 | 16628 ft | 389 kts | 324° |
| 2026-04-21 14:50 | 29.39388 | 115.72509 | 17253 ft | 399 kts | 334° |
| 2026-04-21 14:50 | 29.41965 | 115.71404 | 17718 ft | 402 kts | 334° |
| 2026-04-21 14:50 | 29.44588 | 115.70270 | 18154 ft | 404 kts | 334° |
| 2026-04-21 14:51 | 29.47223 | 115.69119 | 18557 ft | 406 kts | 334° |
| 2026-04-21 14:51 | 29.49868 | 115.67954 | 18963 ft | 408 kts | 334° |
| 2026-04-21 14:51 | 29.52524 | 115.66783 | 19365 ft | 410 kts | 334° |
| 2026-04-21 14:51 | 29.55197 | 115.65606 | 19761 ft | 413 kts | 334° |
| 2026-04-21 14:52 | 29.57884 | 115.64428 | 20167 ft | 415 kts | 334° |
| 2026-04-21 14:52 | 29.60591 | 115.63247 | 20559 ft | 417 kts | 334° |
| 2026-04-21 14:52 | 29.63309 | 115.62064 | 20937 ft | 419 kts | 334° |
| 2026-04-21 14:52 | 29.66008 | 115.60888 | 21308 ft | 421 kts | 334° |
| 2026-04-21 14:53 | 29.68750 | 115.59689 | 21679 ft | 423 kts | 334° |
| 2026-04-21 14:53 | 29.71508 | 115.58480 | 22057 ft | 425 kts | 334° |
| 2026-04-21 14:53 | 29.74276 | 115.57266 | 22470 ft | 426 kts | 333° |
| 2026-04-21 14:53 | 29.77054 | 115.56046 | 22822 ft | 429 kts | 333° |
| 2026-04-21 14:54 | 29.79845 | 115.54819 | 23174 ft | 431 kts | 333° |
| 2026-04-21 14:54 | 29.82649 | 115.53584 | 23517 ft | 433 kts | 333° |
| 2026-04-21 14:54 | 29.85468 | 115.52344 | 23811 ft | 434 kts | 333° |
| 2026-04-21 14:54 | 29.88259 | 115.51118 | 24106 ft | 436 kts | 333° |
| 2026-04-21 14:55 | 29.91096 | 115.49869 | 24382 ft | 438 kts | 333° |
| 2026-04-21 14:55 | 29.93949 | 115.48610 | 24662 ft | 440 kts | 333° |
| 2026-04-21 14:55 | 29.96814 | 115.47346 | 24937 ft | 442 kts | 333° |
| 2026-04-21 14:55 | 29.99691 | 115.46077 | 25218 ft | 444 kts | 333° |
| 2026-04-21 14:56 | 30.02590 | 115.44827 | 25491 ft | 448 kts | 336° |
| 2026-04-21 14:56 | 30.05690 | 115.44123 | 25707 ft | 462 kts | 351° |
| 2026-04-21 14:56 | 30.08933 | 115.44395 | 25945 ft | 477 kts | 8° |
| 2026-04-21 14:56 | 30.12022 | 115.45755 | 26194 ft | 490 kts | 26° |
| 2026-04-21 14:57 | 30.14875 | 115.47948 | 26455 ft | 495 kts | 31° |
| 2026-04-21 14:57 | 30.17698 | 115.50239 | 26732 ft | 497 kts | 32° |
| 2026-04-21 14:57 | 30.20518 | 115.52556 | 27003 ft | 498 kts | 32° |
| 2026-04-21 14:57 | 30.23350 | 115.54884 | 27262 ft | 500 kts | 32° |
| 2026-04-21 14:58 | 30.26195 | 115.57213 | 27583 ft | 502 kts | 32° |
| 2026-04-21 14:58 | 30.29061 | 115.59549 | 27766 ft | 506 kts | 32° |
| 2026-04-21 14:58 | 30.31912 | 115.61869 | 28000 ft | 508 kts | 32° |
| 2026-04-21 14:58 | 30.34811 | 115.64227 | 28245 ft | 511 kts | 32° |
| 2026-04-21 14:59 | 30.37725 | 115.66594 | 28503 ft | 513 kts | 32° |
| 2026-04-21 14:59 | 30.40652 | 115.68972 | 28736 ft | 515 kts | 32° |
| 2026-04-21 14:59 | 30.43585 | 115.71359 | 29019 ft | 516 kts | 32° |
| 2026-04-21 14:59 | 30.46518 | 115.73751 | 29372 ft | 515 kts | 32° |
| 2026-04-21 15:00 | 30.49445 | 115.76139 | 29699 ft | 516 kts | 32° |
| 2026-04-21 15:00 | 30.52389 | 115.78545 | 29888 ft | 519 kts | 32° |
| 2026-04-21 15:00 | 30.55339 | 115.80960 | 29976 ft | 515 kts | 32° |
| 2026-04-21 15:01 | 30.61076 | 115.85674 | 29985 ft | 506 kts | 32° |
| 2026-04-21 15:01 | 30.66810 | 115.90383 | 29988 ft | 505 kts | 32° |
| 2026-04-21 15:02 | 30.72536 | 115.95086 | 29982 ft | 502 kts | 32° |
| 2026-04-21 15:02 | 30.78223 | 115.99765 | 29995 ft | 500 kts | 31° |
| 2026-04-21 15:03 | 30.83851 | 116.04402 | 30004 ft | 499 kts | 31° |
| 2026-04-21 15:03 | 30.89515 | 116.09074 | 29995 ft | 499 kts | 31° |
| 2026-04-21 15:04 | 30.95174 | 116.13746 | 30029 ft | 498 kts | 32° |
| 2026-04-21 15:04 | 31.00818 | 116.18422 | 30030 ft | 497 kts | 32° |
| 2026-04-21 15:05 | 31.06402 | 116.23067 | 30025 ft | 496 kts | 34° |
| 2026-04-21 15:05 | 31.11281 | 116.28806 | 30013 ft | 502 kts | 50° |
| 2026-04-21 15:05 | 31.13403 | 116.32039 | 30015 ft | 502 kts | 50° |
| 2026-04-21 15:06 | 31.17671 | 116.38506 | 30018 ft | 503 kts | 50° |
| 2026-04-21 15:06 | 31.21943 | 116.44975 | 30011 ft | 503 kts | 50° |
| 2026-04-21 15:07 | 31.26174 | 116.51416 | 30011 ft | 503 kts | 50° |
| 2026-04-21 15:07 | 31.30439 | 116.57899 | 30000 ft | 503 kts | 50° |
| 2026-04-21 15:08 | 31.34693 | 116.64384 | 30020 ft | 502 kts | 51° |
| 2026-04-21 15:08 | 31.38940 | 116.70876 | 30018 ft | 502 kts | 51° |
| 2026-04-21 15:09 | 31.43159 | 116.77327 | 30014 ft | 502 kts | 51° |
| 2026-04-21 15:09 | 31.47399 | 116.83824 | 30013 ft | 502 kts | 51° |
| 2026-04-21 15:10 | 31.51656 | 116.90305 | 30023 ft | 502 kts | 50° |
| 2026-04-21 15:10 | 31.55945 | 116.96760 | 30018 ft | 502 kts | 50° |
| 2026-04-21 15:11 | 31.60228 | 117.03224 | 30017 ft | 502 kts | 50° |
| 2026-04-21 15:11 | 31.64453 | 117.09678 | 30016 ft | 502 kts | 51° |
| 2026-04-21 15:12 | 31.68641 | 117.16249 | 30049 ft | 503 kts | 52° |
| 2026-04-21 15:12 | 31.72943 | 117.22707 | 30028 ft | 500 kts | 43° |
| 2026-04-21 15:13 | 31.78516 | 117.27381 | 30025 ft | 489 kts | 20° |
| 2026-04-21 15:13 | 31.84898 | 117.29517 | 30024 ft | 475 kts | 0° |
| 2026-04-21 15:14 | 31.91419 | 117.29469 | 30041 ft | 467 kts | 352° |
| 2026-04-21 15:14 | 31.97911 | 117.29120 | 30045 ft | 467 kts | 352° |
| 2026-04-21 15:15 | 32.04398 | 117.28796 | 30042 ft | 467 kts | 352° |
| 2026-04-21 15:15 | 32.10895 | 117.28527 | 30040 ft | 467 kts | 352° |
| 2026-04-21 15:16 | 32.17339 | 117.28267 | 30061 ft | 467 kts | 352° |
| 2026-04-21 15:16 | 32.23829 | 117.27979 | 30059 ft | 467 kts | 352° |
| 2026-04-21 15:17 | 32.30317 | 117.27682 | 30049 ft | 466 kts | 352° |
| 2026-04-21 15:17 | 32.36758 | 117.27399 | 30056 ft | 466 kts | 352° |
| 2026-04-21 15:18 | 32.43241 | 117.27110 | 30060 ft | 466 kts | 352° |
| 2026-04-21 15:18 | 32.49744 | 117.27185 | 30050 ft | 474 kts | 4° |
| 2026-04-21 15:19 | 32.56061 | 117.29705 | 30051 ft | 488 kts | 26° |
| 2026-04-21 15:19 | 32.61550 | 117.34534 | 30068 ft | 494 kts | 35° |
| 2026-04-21 15:20 | 32.66858 | 117.39619 | 30070 ft | 494 kts | 35° |
| 2026-04-21 15:20 | 32.72193 | 117.44745 | 30074 ft | 493 kts | 35° |
| 2026-04-21 15:21 | 32.77524 | 117.49880 | 30064 ft | 494 kts | 35° |
| 2026-04-21 15:21 | 32.82861 | 117.55035 | 30068 ft | 494 kts | 35° |
| 2026-04-21 15:22 | 32.88161 | 117.60164 | 30059 ft | 495 kts | 35° |
| 2026-04-21 15:22 | 32.93512 | 117.65302 | 30062 ft | 493 kts | 32° |
| 2026-04-21 15:23 | 32.99475 | 117.69064 | 30061 ft | 480 kts | 13° |
| 2026-04-21 15:23 | 33.05927 | 117.70542 | 30063 ft | 469 kts | 358° |
| 2026-04-21 15:24 | 33.12397 | 117.71196 | 30060 ft | 471 kts | 359° |
| 2026-04-21 15:24 | 33.18931 | 117.71875 | 30064 ft | 471 kts | 359° |
| 2026-04-21 15:25 | 33.24361 | 117.72446 | 30060 ft | 472 kts | 359° |
| 2026-04-21 15:25 | 33.32012 | 117.73247 | 30071 ft | 472 kts | 359° |
| 2026-04-21 15:26 | 33.37456 | 117.73814 | 30085 ft | 472 kts | 359° |
| 2026-04-21 15:26 | 33.45071 | 117.74604 | 30085 ft | 473 kts | 359° |
| 2026-04-21 15:27 | 33.50517 | 117.75167 | 30113 ft | 472 kts | 359° |
| 2026-04-21 15:27 | 33.58163 | 117.75972 | 30111 ft | 472 kts | 359° |
| 2026-04-21 15:28 | 33.63595 | 117.76546 | 30104 ft | 471 kts | 359° |
| 2026-04-21 15:28 | 33.71189 | 117.77340 | 30106 ft | 471 kts | 359° |
| 2026-04-21 15:29 | 33.76618 | 117.77909 | 30100 ft | 471 kts | 359° |
| 2026-04-21 15:29 | 33.83153 | 117.78599 | 30103 ft | 472 kts | 359° |
| 2026-04-21 15:30 | 33.90799 | 117.79406 | 30096 ft | 472 kts | 359° |
| 2026-04-21 15:30 | 33.97306 | 117.80088 | 30108 ft | 473 kts | 359° |
| 2026-04-21 15:31 | 34.02739 | 117.80393 | 30106 ft | 465 kts | 349° |
| 2026-04-21 15:31 | 34.09202 | 117.79842 | 30102 ft | 466 kts | 349° |
| 2026-04-21 15:32 | 34.15676 | 117.79280 | 30129 ft | 467 kts | 349° |
| 2026-04-21 15:32 | 34.22162 | 117.78715 | 30134 ft | 467 kts | 349° |
| 2026-04-21 15:33 | 34.28594 | 117.78160 | 30133 ft | 467 kts | 349° |
| 2026-04-21 15:33 | 34.35067 | 117.77598 | 30135 ft | 466 kts | 349° |
| 2026-04-21 15:34 | 34.41534 | 117.77035 | 30153 ft | 466 kts | 349° |
| 2026-04-21 15:34 | 34.49049 | 117.76370 | 30141 ft | 466 kts | 349° |
| 2026-04-21 15:35 | 34.54462 | 117.75890 | 30134 ft | 466 kts | 349° |
| 2026-04-21 15:35 | 34.60886 | 117.75327 | 30138 ft | 466 kts | 349° |
| 2026-04-21 15:36 | 34.67355 | 117.74762 | 30147 ft | 466 kts | 349° |
| 2026-04-21 15:36 | 34.73821 | 117.74191 | 30140 ft | 466 kts | 349° |
| 2026-04-21 15:37 | 34.80279 | 117.73617 | 30136 ft | 466 kts | 349° |
| 2026-04-21 15:37 | 34.86698 | 117.73046 | 30167 ft | 466 kts | 349° |
| 2026-04-21 15:38 | 34.93163 | 117.72478 | 30150 ft | 466 kts | 349° |
| 2026-04-21 15:38 | 34.99626 | 117.71909 | 30142 ft | 465 kts | 349° |
| 2026-04-21 15:39 | 35.06079 | 117.71293 | 30141 ft | 462 kts | 345° |
| 2026-04-21 15:39 | 35.12170 | 117.69391 | 30152 ft | 453 kts | 336° |
| 2026-04-21 15:40 | 35.18210 | 117.67162 | 30152 ft | 454 kts | 336° |
| 2026-04-21 15:40 | 35.24254 | 117.64936 | 30142 ft | 454 kts | 336° |
| 2026-04-21 15:41 | 35.30301 | 117.62709 | 30143 ft | 454 kts | 336° |
| 2026-04-21 15:41 | 35.36359 | 117.60485 | 30179 ft | 454 kts | 336° |
| 2026-04-21 15:42 | 35.42351 | 117.58273 | 30178 ft | 452 kts | 336° |
| 2026-04-21 15:42 | 35.48364 | 117.56047 | 30184 ft | 451 kts | 336° |
| 2026-04-21 15:43 | 35.51374 | 117.54934 | 29705 ft | 452 kts | 336° |
| 2026-04-21 15:43 | 35.54375 | 117.53821 | 29035 ft | 451 kts | 336° |
| 2026-04-21 15:43 | 35.57383 | 117.52703 | 28382 ft | 452 kts | 336° |
| 2026-04-21 15:43 | 35.60401 | 117.51584 | 27741 ft | 453 kts | 336° |
| 2026-04-21 15:44 | 35.63380 | 117.50476 | 27123 ft | 454 kts | 336° |
| 2026-04-21 15:44 | 35.66391 | 117.49357 | 26512 ft | 451 kts | 336° |
| 2026-04-21 15:44 | 35.69385 | 117.48245 | 25918 ft | 448 kts | 336° |
| 2026-04-21 15:44 | 35.72356 | 117.47141 | 25331 ft | 444 kts | 336° |
| 2026-04-21 15:45 | 35.75302 | 117.46044 | 24757 ft | 441 kts | 337° |
| 2026-04-21 15:45 | 35.78223 | 117.44954 | 24190 ft | 437 kts | 337° |
| 2026-04-21 15:45 | 35.81117 | 117.43874 | 23638 ft | 433 kts | 337° |
| 2026-04-21 15:45 | 35.83991 | 117.42801 | 23003 ft | 429 kts | 337° |
| 2026-04-21 15:46 | 35.86835 | 117.41740 | 22354 ft | 425 kts | 337° |
| 2026-04-21 15:46 | 35.89616 | 117.40702 | 21727 ft | 421 kts | 337° |
| 2026-04-21 15:46 | 35.92411 | 117.39659 | 21106 ft | 418 kts | 337° |
| 2026-04-21 15:46 | 35.95180 | 117.38622 | 20502 ft | 414 kts | 338° |
| 2026-04-21 15:47 | 35.97921 | 117.37609 | 19901 ft | 411 kts | 340° |
| 2026-04-21 15:47 | 36.00734 | 117.36944 | 19313 ft | 413 kts | 348° |
| 2026-04-21 15:47 | 36.03609 | 117.36786 | 18736 ft | 413 kts | 355° |
| 2026-04-21 15:47 | 36.06475 | 117.36799 | 18170 ft | 410 kts | 355° |
| 2026-04-21 15:48 | 36.09315 | 117.36803 | 17516 ft | 406 kts | 356° |
| 2026-04-21 15:48 | 36.12093 | 117.36802 | 16880 ft | 403 kts | 356° |
| 2026-04-21 15:48 | 36.14891 | 117.36800 | 16252 ft | 401 kts | 356° |
| 2026-04-21 15:48 | 36.17665 | 117.36797 | 15627 ft | 398 kts | 357° |
| 2026-04-21 15:49 | 36.20430 | 117.36796 | 15033 ft | 396 kts | 358° |
| 2026-04-21 15:49 | 36.23179 | 117.36794 | 14439 ft | 394 kts | 358° |
| 2026-04-21 15:49 | 36.25906 | 117.36791 | 13854 ft | 391 kts | 359° |
| 2026-04-21 15:49 | 36.28622 | 117.36791 | 13202 ft | 389 kts | 0° |
| 2026-04-21 15:50 | 36.31287 | 117.36796 | 12563 ft | 386 kts | 1° |
| 2026-04-21 15:50 | 36.33963 | 117.36799 | 12025 ft | 381 kts | 1° |
| 2026-04-21 15:50 | 36.36567 | 117.36800 | 11834 ft | 367 kts | 1° |
| 2026-04-21 15:50 | 36.39082 | 117.36799 | 11869 ft | 360 kts | 1° |
| 2026-04-21 15:51 | 36.41587 | 117.36797 | 11870 ft | 359 kts | 1° |
| 2026-04-21 15:51 | 36.44085 | 117.36797 | 11870 ft | 359 kts | 1° |
| 2026-04-21 15:51 | 36.46581 | 117.36797 | 11804 ft | 360 kts | 1° |
| 2026-04-21 15:51 | 36.49078 | 117.36800 | 11398 ft | 356 kts | 1° |
| 2026-04-21 15:52 | 36.51493 | 117.36802 | 10931 ft | 336 kts | 2° |
| 2026-04-21 15:52 | 36.53748 | 117.36801 | 10655 ft | 309 kts | 2° |
| 2026-04-21 15:52 | 36.55776 | 117.36800 | 10534 ft | 285 kts | 2° |
| 2026-04-21 15:52 | 36.57725 | 117.36804 | 10049 ft | 276 kts | 3° |
| 2026-04-21 15:53 | 36.59627 | 117.36812 | 9545 ft | 272 kts | 3° |
| 2026-04-21 15:53 | 36.61510 | 117.36822 | 9014 ft | 271 kts | 3° |
| 2026-04-21 15:53 | 36.63392 | 117.36830 | 8508 ft | 271 kts | 3° |
| 2026-04-21 15:53 | 36.65206 | 117.36838 | 8028 ft | 276 kts | 3° |
| 2026-04-21 15:54 | 36.67135 | 117.36843 | 7525 ft | 279 kts | 3° |
| 2026-04-21 15:54 | 36.69064 | 117.36846 | 7067 ft | 282 kts | 2° |
| 2026-04-21 15:54 | 36.70992 | 117.36845 | 6937 ft | 272 kts | 2° |
| 2026-04-21 15:54 | 36.72877 | 117.36844 | 6935 ft | 271 kts | 2° |
| 2026-04-21 15:55 | 36.74761 | 117.36845 | 6943 ft | 270 kts | 2° |
| 2026-04-21 15:55 | 36.76640 | 117.36849 | 6945 ft | 270 kts | 2° |
| 2026-04-21 15:55 | 36.78521 | 117.36853 | 6945 ft | 270 kts | 2° |
| 2026-04-21 15:55 | 36.80400 | 117.36860 | 6945 ft | 270 kts | 2° |
| 2026-04-21 15:56 | 36.82283 | 117.36867 | 6945 ft | 270 kts | 2° |
| 2026-04-21 15:56 | 36.84164 | 117.36868 | 6944 ft | 270 kts | 2° |
| 2026-04-21 15:56 | 36.86017 | 117.36868 | 6945 ft | 270 kts | 2° |
| 2026-04-21 15:56 | 36.87896 | 117.36868 | 6945 ft | 270 kts | 2° |
| 2026-04-21 15:57 | 36.89776 | 117.36870 | 6939 ft | 270 kts | 2° |
| 2026-04-21 15:57 | 36.91659 | 117.36872 | 6939 ft | 270 kts | 2° |
| 2026-04-21 15:57 | 36.93538 | 117.36874 | 6939 ft | 270 kts | 2° |
| 2026-04-21 15:57 | 36.95415 | 117.36875 | 6938 ft | 269 kts | 1° |
| 2026-04-21 15:58 | 36.97288 | 117.36877 | 6939 ft | 269 kts | 1° |
| 2026-04-21 15:58 | 36.99140 | 117.36880 | 6937 ft | 269 kts | 1° |
| 2026-04-21 15:58 | 37.01012 | 117.36885 | 6936 ft | 270 kts | 1° |
| 2026-04-21 15:58 | 37.02889 | 117.36890 | 6936 ft | 270 kts | 1° |
| 2026-04-21 15:59 | 37.04766 | 117.36892 | 6937 ft | 270 kts | 1° |
| 2026-04-21 15:59 | 37.06638 | 117.36895 | 6935 ft | 266 kts | 1° |
| 2026-04-21 15:59 | 37.08428 | 117.36898 | 6931 ft | 250 kts | 2° |
| 2026-04-21 15:59 | 37.10122 | 117.36599 | 6917 ft | 248 kts | 339° |
| 2026-04-21 16:00 | 37.11440 | 117.35274 | 6549 ft | 251 kts | 301° |
| 2026-04-21 16:00 | 37.11919 | 117.33230 | 6197 ft | 245 kts | 270° |
| 2026-04-21 16:00 | 37.11921 | 117.31111 | 5816 ft | 242 kts | 268° |
| 2026-04-21 16:00 | 37.11912 | 117.29011 | 5438 ft | 240 kts | 268° |
| 2026-04-21 16:01 | 37.11905 | 117.26932 | 5056 ft | 237 kts | 268° |
| 2026-04-21 16:01 | 37.11887 | 117.24873 | 4651 ft | 235 kts | 264° |
| 2026-04-21 16:01 | 37.11362 | 117.22985 | 4225 ft | 230 kts | 232° |
| 2026-04-21 16:01 | 37.10140 | 117.21814 | 3814 ft | 226 kts | 200° |
| 2026-04-21 16:02 | 37.08626 | 117.21647 | 3385 ft | 216 kts | 175° |
| 2026-04-21 16:02 | 37.07180 | 117.21766 | 2955 ft | 207 kts | 180° |
| 2026-04-21 16:02 | 37.05767 | 117.21760 | 2525 ft | 200 kts | 181° |
| 2026-04-21 16:02 | 37.04429 | 117.21729 | 2275 ft | 180 kts | 181° |
| 2026-04-21 16:03 | 37.03250 | 117.21688 | 2142 ft | 160 kts | 183° |
| 2026-04-21 16:03 | 37.02191 | 117.21640 | 2091 ft | 145 kts | 182° |
| 2026-04-21 16:03 | 37.01209 | 117.21619 | 2037 ft | 139 kts | 181° |
| 2026-04-21 16:03 | 37.00251 | 117.21610 | 2036 ft | 137 kts | 181° |
| 2026-04-21 16:04 | 36.99301 | 117.21605 | 2036 ft | 136 kts | 181° |
| 2026-04-21 16:04 | 36.98367 | 117.21603 | 2036 ft | 136 kts | 181° |
| 2026-04-21 16:04 | 36.97418 | 117.21602 | 1990 ft | 138 kts | 180° |
| 2026-04-21 16:04 | 36.96458 | 117.21601 | 1868 ft | 138 kts | 180° |
| 2026-04-21 16:05 | 36.95499 | 117.21601 | 1718 ft | 138 kts | 180° |
| 2026-04-21 16:05 | 36.94542 | 117.21601 | 1526 ft | 137 kts | 181° |
| 2026-04-21 16:05 | 36.93583 | 117.21601 | 1338 ft | 138 kts | 180° |
| 2026-04-21 16:05 | 36.92623 | 117.21601 | 1161 ft | 138 kts | 181° |
| 2026-04-21 16:06 | 36.91662 | 117.21601 | 963 ft | 138 kts | 181° |
| 2026-04-21 16:06 | 36.90720 | 117.21597 | 744 ft | 137 kts | 182° |
| 2026-04-21 16:06 | 36.89769 | 117.21589 | 595 ft | 137 kts | 180° |
| 2026-04-21 16:06 | 36.88817 | 117.21606 | 404 ft | 136 kts | 181° |
| 2026-04-21 16:07 | 36.87870 | 117.21599 | 240 ft | 136 kts | 180° |
| 2026-04-21 16:07 | 36.86922 | 117.21598 | 93 ft | 135 kts | 181° |
| 2026-04-21 16:07 | 36.86136 | 117.21595 | 90 ft | 84 kts | 180° |
| 2026-04-21 16:07 | 36.85725 | 117.21593 | 90 ft | 40 kts | 179° |
| 2026-04-21 16:08 | 36.85493 | 117.21524 | 89 ft | 14 kts | 204° |
| 2026-04-21 16:08 | 36.85417 | 117.21469 | 84 ft | 7 kts | 219° |
| 2026-04-21 16:08 | 36.85395 | 117.21411 | 85 ft | 8 kts | 264° |
| 2026-04-21 16:09 | 36.85392 | 117.21340 | 81 ft | 9 kts | 267° |
| 2026-04-21 16:09 | 36.85406 | 117.21272 | 84 ft | 8 kts | 302° |
| 2026-04-21 16:09 | 36.85422 | 117.21210 | 80 ft | 7 kts | 263° |
| 2026-04-21 16:09 | 36.85406 | 117.21153 | 84 ft | 7 kts | 247° |
| 2026-04-21 16:10 | 36.85389 | 117.21099 | 82 ft | 6 kts | 252° |
| 2026-04-21 16:10 | 36.85406 | 117.21063 | 85 ft | 5 kts | 335° |
| 2026-04-21 16:10 | 36.85431 | 117.21046 | 84 ft | 4 kts | 332° |
| 2026-04-21 16:10 | 36.85448 | 117.21036 | 80 ft | 0 kts | 335° |